createdAt,value
2023-04-08T00:00:50.041Z,9.23
2023-04-08T00:03:17.256Z,9.30
2023-04-08T00:05:44.340Z,8.60
2023-04-08T00:08:11.479Z,9.07
2023-04-08T00:10:38.635Z,9.05
2023-04-08T00:13:06.777Z,10.02
2023-04-08T00:15:33.757Z,8.48
2023-04-08T00:18:01.337Z,8.50
2023-04-08T00:20:28.373Z,8.75
2023-04-08T00:22:55.370Z,9.60
2023-04-08T00:25:25.373Z,9.52
2023-04-08T00:27:52.832Z,8.18
2023-04-08T00:30:20.162Z,8.60
2023-04-08T00:32:47.184Z,9.30
2023-04-08T00:35:16.292Z,8.52
2023-04-08T00:37:43.721Z,8.65
2023-04-08T00:40:11.113Z,9.32
2023-04-08T00:42:38.812Z,9.77
2023-04-08T00:45:06.493Z,8.73
2023-04-08T00:47:37.916Z,8.82
2023-04-08T00:50:07.272Z,8.93
2023-04-08T00:52:36.516Z,9.65
2023-04-08T00:55:03.745Z,8.40
2023-04-08T00:57:30.756Z,8.63
2023-04-08T00:59:57.741Z,8.90
2023-04-08T01:02:54.271Z,8.35
2023-04-08T01:05:27.539Z,8.85
2023-04-08T01:07:54.730Z,8.10
2023-04-08T01:10:26.543Z,8.20
2023-04-08T01:12:59.946Z,8.23
2023-04-08T01:15:29.753Z,7.70
2023-04-08T01:17:59.959Z,8.23
2023-04-08T01:20:28.915Z,7.53
2023-04-08T01:23:14.922Z,7.72
2023-04-08T01:25:53.293Z,7.82
2023-04-08T01:28:24.683Z,7.40
2023-04-08T01:30:52.559Z,7.95
2023-04-08T01:33:19.979Z,7.30
2023-04-08T01:35:47.212Z,7.43
2023-04-08T01:38:20.933Z,7.65
2023-04-08T01:40:49.749Z,7.43
2023-04-08T01:43:18.867Z,7.63
2023-04-08T01:45:47.709Z,6.85
2023-04-08T01:48:16.805Z,7.25
2023-04-08T01:50:45.710Z,6.18
2023-04-08T01:53:14.009Z,5.97
2023-04-08T01:55:42.537Z,6.00
2023-04-08T01:58:12.607Z,6.50
2023-04-08T02:00:42.863Z,6.07
2023-04-08T02:03:13.022Z,5.90
2023-04-08T02:05:41.043Z,5.60
2023-04-08T02:08:10.334Z,5.65
2023-04-08T02:10:37.324Z,5.75
2023-04-08T02:13:05.462Z,6.00
2023-04-08T02:15:36.539Z,5.20
2023-04-08T02:18:15.614Z,5.53
2023-04-08T02:20:53.793Z,5.50
2023-04-08T02:23:25.470Z,5.70
2023-04-08T02:25:56.792Z,5.35
2023-04-08T02:28:29.168Z,5.55
2023-04-08T02:31:00.844Z,5.68
2023-04-08T02:33:28.590Z,4.88
2023-04-08T02:35:57.212Z,4.68
2023-04-08T02:38:24.479Z,5.15
2023-04-08T02:40:52.722Z,5.10
2023-04-08T02:43:19.691Z,5.25
2023-04-08T02:45:46.914Z,5.13
2023-04-08T02:48:15.442Z,4.97
2023-04-08T02:50:42.418Z,4.88
2023-04-08T02:53:09.846Z,4.97
2023-04-08T02:55:38.055Z,4.95
2023-04-08T02:58:05.459Z,4.90
2023-04-08T03:00:33.967Z,4.50
2023-04-08T03:03:01.945Z,4.38
2023-04-08T03:05:29.088Z,4.80
2023-04-08T03:07:56.097Z,4.85
2023-04-08T03:10:23.100Z,4.40
2023-04-08T03:12:51.616Z,4.18
2023-04-08T03:15:19.316Z,4.18
2023-04-08T03:17:46.408Z,5.30
2023-04-08T03:20:13.393Z,4.03
2023-04-08T03:22:40.436Z,4.60
2023-04-08T03:25:07.882Z,4.47
2023-04-08T03:27:34.973Z,5.13
2023-04-08T03:30:01.858Z,4.53
2023-04-08T03:32:32.894Z,4.72
2023-04-08T03:34:59.838Z,4.68
2023-04-08T03:37:27.021Z,4.80
2023-04-08T03:39:55.431Z,5.10
2023-04-08T03:42:22.783Z,5.03
2023-04-08T03:44:49.802Z,4.30
2023-04-08T03:47:17.038Z,4.68
2023-04-08T03:49:43.968Z,4.75
2023-04-08T03:52:10.910Z,4.95
2023-04-08T03:54:38.136Z,5.10
2023-04-08T03:57:05.022Z,5.53
2023-04-08T03:59:33.994Z,5.10
2023-04-08T04:02:01.020Z,5.03
2023-04-08T04:04:28.122Z,6.32
2023-04-08T04:06:56.288Z,6.55
2023-04-08T04:09:25.000Z,6.13
2023-04-08T04:11:52.628Z,6.35
2023-04-08T04:14:19.580Z,6.35
2023-04-08T04:16:46.500Z,5.80
2023-04-08T04:19:13.748Z,5.72
2023-04-08T04:21:41.032Z,5.10
2023-04-08T04:24:08.577Z,5.25
2023-04-08T04:26:36.166Z,6.43
2023-04-08T04:29:04.658Z,6.85
2023-04-08T04:31:32.848Z,6.00
2023-04-08T04:34:00.861Z,6.63
2023-04-08T04:36:28.278Z,6.63
2023-04-08T04:38:57.241Z,6.45
2023-04-08T04:41:24.790Z,6.93
2023-04-08T04:43:51.796Z,6.78
2023-04-08T04:46:18.777Z,6.72
2023-04-08T04:48:45.788Z,7.20
2023-04-08T04:51:12.777Z,7.32
2023-04-08T04:53:39.748Z,6.65
2023-04-08T04:56:06.966Z,7.88
2023-04-08T04:58:36.415Z,8.38
2023-04-08T05:01:03.750Z,8.05
2023-04-08T05:03:31.751Z,8.15
2023-04-08T05:05:58.772Z,9.43
2023-04-08T05:08:27.720Z,8.90
2023-04-08T05:10:56.571Z,9.15
2023-04-08T05:13:23.572Z,9.55
2023-04-08T05:15:50.651Z,8.95
2023-04-08T05:18:17.786Z,9.23
2023-04-08T05:20:44.906Z,9.13
2023-04-08T05:23:11.911Z,8.88
2023-04-08T05:25:38.912Z,9.10
2023-04-08T05:28:06.563Z,8.95
2023-04-08T05:30:33.604Z,8.90
2023-04-08T05:33:00.995Z,9.82
2023-04-08T05:35:28.968Z,10.50
2023-04-08T05:37:56.246Z,9.90
2023-04-08T05:40:24.956Z,10.98
2023-04-08T05:42:54.250Z,12.00
2023-04-08T05:45:21.556Z,12.63
2023-04-08T05:47:49.174Z,14.25
2023-04-08T05:50:20.134Z,12.40
2023-04-08T05:52:48.795Z,12.10
2023-04-08T05:55:16.753Z,12.13
2023-04-08T05:57:43.734Z,13.98
2023-04-08T06:00:12.662Z,14.60
2023-04-08T06:02:40.054Z,13.70
2023-04-08T06:05:07.441Z,15.13
2023-04-08T06:07:34.702Z,15.27
2023-04-08T06:10:03.499Z,15.93
2023-04-08T06:12:30.790Z,17.63
2023-04-08T06:14:59.796Z,17.45
2023-04-08T06:17:27.347Z,16.88
2023-04-08T06:19:55.788Z,14.80
2023-04-08T06:22:23.280Z,17.10
2023-04-08T06:24:50.317Z,15.30
2023-04-08T06:27:17.372Z,15.73
2023-04-08T06:29:44.684Z,15.25
2023-04-08T06:32:13.660Z,14.60
2023-04-08T06:34:41.203Z,15.63
2023-04-08T06:37:08.255Z,14.38
2023-04-08T06:39:35.377Z,13.85
2023-04-08T06:42:02.822Z,15.15
2023-04-08T06:44:46.538Z,14.43
2023-04-08T06:47:13.647Z,13.48
2023-04-08T06:49:41.513Z,14.50
2023-04-08T06:52:09.593Z,15.52
2023-04-08T06:54:36.584Z,16.60
2023-04-08T06:57:04.814Z,15.57
2023-04-08T06:59:31.880Z,15.60
2023-04-08T07:01:58.973Z,15.85
2023-04-08T07:04:27.654Z,17.33
2023-04-08T07:06:57.968Z,16.77
2023-04-08T07:09:25.010Z,15.00
2023-04-08T07:11:53.844Z,15.20
2023-04-08T07:14:20.841Z,14.82
2023-04-08T07:16:47.953Z,14.27
2023-04-08T07:19:14.976Z,13.85
2023-04-08T07:21:42.247Z,13.30
2023-04-08T07:24:09.233Z,13.38
2023-04-08T07:26:36.514Z,11.43
2023-04-08T07:29:03.475Z,11.45
2023-04-08T07:31:30.599Z,10.52
2023-04-08T07:33:57.586Z,9.05
2023-04-08T07:36:24.584Z,8.07
2023-04-08T07:38:52.250Z,8.40
2023-04-08T07:41:19.568Z,9.00
2023-04-08T07:43:47.083Z,8.55
2023-04-08T07:46:17.711Z,8.38
2023-04-08T07:48:45.237Z,7.63
2023-04-08T07:51:12.316Z,7.43
2023-04-08T07:53:40.672Z,7.35
2023-04-08T07:56:12.704Z,6.80
2023-04-08T07:58:40.735Z,7.45
2023-04-08T08:01:19.088Z,7.57
2023-04-08T08:03:49.630Z,6.53
2023-04-08T08:06:17.682Z,6.13
2023-04-08T08:08:44.818Z,5.28
2023-04-08T08:11:11.857Z,5.93
2023-04-08T08:13:38.972Z,6.57
2023-04-08T08:16:09.588Z,6.10
2023-04-08T08:18:37.115Z,5.43
2023-04-08T08:21:04.818Z,6.28
2023-04-08T08:23:34.745Z,5.93
2023-04-08T08:26:06.487Z,5.53
2023-04-08T08:28:34.114Z,6.38
2023-04-08T08:31:01.160Z,7.13
2023-04-08T08:33:28.444Z,6.32
2023-04-08T08:35:56.132Z,6.68
2023-04-08T08:38:23.273Z,6.70
2023-04-08T08:40:56.337Z,7.40
2023-04-08T08:43:27.315Z,8.15
2023-04-08T08:45:54.785Z,7.00
2023-04-08T08:48:21.878Z,7.70
2023-04-08T08:50:48.760Z,8.25
2023-04-08T08:53:16.921Z,8.32
2023-04-08T08:56:15.774Z,7.95
2023-04-08T08:58:31.066Z,7.82
2023-04-08T09:00:57.993Z,8.32
2023-04-08T09:03:30.116Z,8.02
2023-04-08T09:06:00.045Z,7.95
2023-04-08T09:08:28.273Z,8.25
2023-04-08T09:10:56.363Z,7.47
2023-04-08T09:13:24.844Z,7.57
2023-04-08T09:16:06.287Z,7.78
2023-04-08T09:18:34.418Z,7.80
2023-04-08T09:21:02.618Z,7.63
2023-04-08T09:23:46.873Z,8.73
2023-04-08T09:26:18.296Z,7.78
2023-04-08T09:29:18.247Z,8.50
2023-04-08T09:32:01.915Z,8.32
2023-04-08T09:34:29.975Z,7.78
2023-04-08T09:36:57.040Z,7.85
2023-04-08T09:39:24.301Z,8.32
2023-04-08T09:41:53.287Z,7.45
2023-04-08T09:44:22.124Z,7.90
2023-04-08T09:46:52.818Z,7.78
2023-04-08T09:49:27.347Z,8.23
2023-04-08T09:52:32.431Z,13.63
2023-04-08T09:55:09.404Z,11.18
2023-04-08T09:57:58.595Z,13.52
2023-04-08T10:00:32.455Z,10.27
2023-04-08T10:03:22.395Z,9.23
2023-04-08T10:05:52.859Z,9.45
2023-04-08T10:08:21.270Z,9.68
2023-04-08T10:10:48.626Z,9.45
2023-04-08T10:13:16.072Z,12.50
2023-04-08T10:15:43.395Z,10.50
2023-04-08T10:18:10.316Z,10.25
2023-04-08T10:20:37.570Z,11.27
2023-04-08T10:23:10.749Z,13.25
2023-04-08T10:25:38.447Z,11.15
2023-04-08T10:28:12.405Z,11.45
2023-04-08T10:30:42.083Z,11.80
2023-04-08T10:33:15.839Z,11.07
2023-04-08T10:35:47.756Z,13.18
2023-04-08T10:38:16.128Z,10.82
2023-04-08T10:40:45.738Z,10.73
2023-04-08T10:43:14.705Z,14.02
2023-04-08T10:45:47.957Z,9.93
2023-04-08T10:48:19.908Z,8.88
2023-04-08T10:51:00.264Z,9.20
2023-04-08T10:53:33.714Z,9.35
2023-04-08T10:56:13.483Z,11.65
2023-04-08T10:58:52.194Z,12.93
2023-04-08T11:01:19.886Z,13.00
2023-04-08T11:03:47.647Z,12.90
2023-04-08T11:06:14.950Z,10.13
2023-04-08T11:08:42.378Z,9.50
2023-04-08T11:11:11.689Z,8.40
2023-04-08T11:13:52.946Z,8.35
2023-04-08T11:16:22.989Z,10.40
2023-04-08T11:18:51.197Z,9.32
2023-04-08T11:21:18.494Z,10.75
2023-04-08T11:23:45.699Z,9.90
2023-04-08T11:26:15.147Z,13.00
2023-04-08T11:28:42.277Z,12.75
2023-04-08T11:31:09.793Z,18.08
2023-04-08T11:33:37.175Z,20.38
2023-04-08T11:36:04.855Z,14.75
2023-04-08T11:38:32.120Z,11.70
2023-04-08T11:41:00.102Z,12.93
2023-04-08T11:43:28.787Z,11.73
2023-04-08T11:45:55.940Z,12.30
2023-04-08T11:48:25.031Z,17.85
2023-04-08T11:51:12.691Z,18.73
2023-04-08T11:53:39.714Z,10.45
2023-04-08T11:56:47.118Z,10.05
2023-04-08T11:59:14.281Z,11.40
2023-04-08T12:01:41.636Z,15.10
2023-04-08T12:04:10.530Z,11.15
2023-04-08T12:06:37.809Z,11.48
2023-04-08T12:09:04.788Z,12.88
2023-04-08T12:11:32.074Z,57.35
2023-04-08T12:13:59.097Z,26.50
2023-04-08T12:16:26.532Z,12.40
2023-04-08T12:18:54.885Z,10.35
2023-04-08T12:21:22.618Z,10.50
2023-04-08T12:23:50.024Z,10.32
2023-04-08T12:26:17.325Z,9.75
2023-04-08T12:28:44.294Z,12.30
2023-04-08T12:31:11.560Z,10.35
2023-04-08T12:33:38.545Z,10.45
2023-04-08T12:36:05.663Z,15.98
2023-04-08T12:38:33.793Z,27.98
2023-04-08T12:41:01.008Z,14.25
2023-04-08T12:43:28.117Z,14.55
2023-04-08T12:45:55.326Z,10.70
2023-04-08T12:48:22.420Z,15.02
2023-04-08T12:50:49.466Z,9.00
2023-04-08T12:53:16.454Z,8.77
2023-04-08T12:55:44.658Z,7.78
2023-04-08T12:58:12.035Z,9.77
2023-04-08T13:00:39.036Z,9.32
2023-04-08T13:03:06.624Z,9.02
2023-04-08T13:05:43.081Z,8.55
2023-04-08T13:08:14.596Z,8.93
2023-04-08T13:10:43.783Z,9.50
2023-04-08T13:13:11.816Z,9.73
2023-04-08T13:15:38.849Z,10.82
2023-04-08T13:18:06.027Z,11.25
2023-04-08T13:20:33.704Z,11.48
2023-04-08T13:23:00.971Z,11.88
2023-04-08T13:25:28.049Z,16.48
2023-04-08T13:27:55.226Z,10.85
2023-04-08T13:30:22.442Z,10.48
2023-04-08T13:32:49.440Z,11.05
2023-04-08T13:35:16.408Z,11.05
2023-04-08T13:37:43.504Z,11.07
2023-04-08T13:40:10.921Z,10.07
2023-04-08T13:42:37.896Z,10.38
2023-04-08T13:45:05.348Z,10.25
2023-04-08T13:47:32.326Z,11.00
2023-04-08T13:49:59.341Z,12.77
2023-04-08T13:52:26.398Z,11.73
2023-04-08T13:54:53.418Z,12.10
2023-04-08T13:57:21.115Z,12.60
2023-04-08T13:59:48.110Z,13.00
2023-04-08T14:02:15.068Z,13.90
2023-04-08T14:04:43.281Z,12.35
2023-04-08T14:07:10.522Z,12.32
2023-04-08T14:09:37.574Z,14.40
2023-04-08T14:12:04.697Z,11.75
2023-04-08T14:14:32.389Z,13.60
2023-04-08T14:16:59.439Z,13.38
2023-04-08T14:19:26.853Z,14.23
2023-04-08T14:21:54.463Z,13.50
2023-04-08T14:24:23.739Z,16.35
2023-04-08T14:26:50.784Z,18.00
2023-04-08T14:29:17.793Z,16.10
2023-04-08T14:31:44.765Z,14.80
2023-04-08T14:34:11.715Z,14.18
2023-04-08T14:36:38.731Z,12.95
2023-04-08T14:39:05.823Z,13.55
2023-04-08T14:41:32.896Z,13.27
2023-04-08T14:43:59.984Z,13.75
2023-04-08T14:46:28.878Z,13.60
2023-04-08T14:48:58.817Z,11.75
2023-04-08T14:51:25.966Z,12.35
2023-04-08T14:53:53.039Z,12.80
2023-04-08T14:56:20.140Z,14.13
2023-04-08T14:58:47.224Z,13.30
2023-04-08T15:01:16.861Z,11.45
2023-04-08T15:03:45.226Z,12.02
2023-04-08T15:06:16.932Z,11.77
2023-04-08T15:08:44.339Z,12.23
2023-04-08T15:11:13.838Z,11.43
2023-04-08T15:13:41.411Z,10.70
2023-04-08T15:16:08.416Z,12.00
2023-04-08T15:18:36.294Z,11.95
2023-04-08T15:21:03.552Z,12.32
2023-04-08T15:23:30.612Z,11.50
2023-04-08T15:25:57.714Z,11.55
2023-04-08T15:28:24.949Z,11.65
2023-04-08T15:30:51.971Z,10.75
2023-04-08T15:33:20.112Z,10.57
2023-04-08T15:35:49.917Z,10.10
2023-04-08T15:38:18.497Z,10.23
2023-04-08T15:40:47.948Z,10.90
2023-04-08T15:43:15.931Z,10.02
2023-04-08T15:45:46.789Z,9.90
2023-04-08T15:48:14.403Z,11.15
2023-04-08T15:50:42.166Z,11.00
2023-04-08T15:53:11.269Z,10.27
2023-04-08T15:55:40.128Z,10.73
2023-04-08T15:58:07.758Z,10.43
2023-04-08T16:00:35.062Z,10.23
2023-04-08T16:03:02.472Z,10.35
2023-04-08T16:05:30.349Z,11.30
2023-04-08T16:07:58.101Z,11.27
2023-04-08T16:11:06.058Z,11.40
2023-04-08T16:13:34.337Z,10.65
2023-04-08T16:16:04.745Z,11.77
2023-04-08T16:18:31.810Z,11.05
2023-04-08T16:20:58.879Z,10.73
2023-04-08T16:23:26.507Z,10.45
2023-04-08T16:26:04.477Z,10.95
2023-04-08T16:28:33.611Z,11.95
2023-04-08T16:31:01.896Z,11.48
2023-04-08T16:33:39.457Z,11.82
2023-04-08T16:36:09.738Z,11.98
2023-04-08T16:38:43.583Z,11.82
2023-04-08T16:41:13.328Z,11.95
2023-04-08T16:43:43.303Z,11.20
2023-04-08T16:46:22.068Z,10.95
2023-04-08T16:48:54.828Z,12.55
2023-04-08T16:51:21.869Z,11.93
2023-04-08T16:53:58.332Z,12.10
2023-04-08T16:56:31.153Z,11.70
2023-04-08T16:59:04.313Z,11.85
2023-04-08T17:01:31.931Z,11.15
2023-04-08T17:04:01.869Z,11.90
2023-04-08T17:06:33.452Z,13.15
2023-04-08T17:09:03.784Z,12.20
2023-04-08T17:11:44.448Z,13.65
2023-04-08T17:14:14.668Z,12.80
2023-04-08T17:16:47.103Z,12.50
2023-04-08T17:19:15.836Z,11.77
2023-04-08T17:21:45.343Z,12.50
2023-04-08T17:24:14.604Z,12.93
2023-04-08T17:26:50.691Z,15.32
2023-04-08T17:29:21.724Z,14.15
2023-04-08T17:31:51.875Z,13.88
2023-04-08T17:34:19.019Z,12.93
2023-04-08T17:36:54.351Z,12.82
2023-04-08T17:39:25.390Z,12.13
2023-04-08T17:41:58.173Z,11.68
2023-04-08T17:44:30.023Z,11.27
2023-04-08T17:47:00.735Z,12.18
2023-04-08T17:49:29.452Z,11.32
2023-04-08T17:51:56.864Z,12.32
2023-04-08T17:54:29.086Z,11.75
2023-04-08T17:57:04.419Z,12.10
2023-04-08T17:59:31.785Z,11.85
2023-04-08T18:02:04.564Z,15.77
2023-04-08T18:04:34.273Z,13.23
2023-04-08T18:07:06.976Z,12.00
2023-04-08T18:09:34.460Z,13.18
2023-04-08T18:12:09.700Z,11.75
2023-04-08T18:14:36.682Z,13.07
2023-04-08T18:17:07.088Z,16.08
2023-04-08T18:19:37.102Z,14.10
2023-04-08T18:22:05.998Z,12.50
2023-04-08T18:24:33.498Z,12.63
2023-04-08T18:27:04.528Z,12.73
2023-04-08T18:29:32.190Z,12.57
2023-04-08T18:31:59.249Z,13.20
2023-04-08T18:34:27.055Z,14.10
2023-04-08T18:36:54.053Z,17.33
2023-04-08T18:39:20.921Z,18.85
2023-04-08T18:41:47.924Z,21.60
2023-04-08T18:44:14.871Z,22.42
2023-04-08T18:46:42.214Z,24.48
2023-04-08T18:49:09.231Z,23.05
2023-04-08T18:51:36.343Z,20.90
2023-04-08T18:54:03.484Z,19.98
2023-04-08T18:56:31.676Z,25.85
2023-04-08T18:58:58.758Z,22.98
2023-04-08T19:01:25.970Z,19.30
2023-04-08T19:03:53.441Z,20.90
2023-04-08T19:06:22.909Z,20.15
2023-04-08T19:08:50.029Z,17.73
2023-04-08T19:11:17.118Z,15.00
2023-04-08T19:13:44.126Z,14.02
2023-04-08T19:16:11.397Z,13.35
2023-04-08T19:18:38.492Z,13.43
2023-04-08T19:21:06.514Z,13.52
2023-04-08T19:23:33.457Z,12.80
2023-04-08T19:26:05.317Z,13.93
2023-04-08T19:28:33.465Z,13.45
2023-04-08T19:31:01.487Z,13.15
2023-04-08T19:33:28.726Z,12.85
2023-04-08T19:35:57.081Z,12.93
2023-04-08T19:38:24.502Z,14.10
2023-04-08T19:40:51.474Z,13.15
2023-04-08T19:43:18.629Z,13.30
2023-04-08T19:45:45.606Z,13.07
2023-04-08T19:48:12.530Z,11.82
2023-04-08T19:50:39.716Z,13.13
2023-04-08T19:53:06.715Z,12.60
2023-04-08T19:55:35.608Z,12.00
2023-04-08T19:58:02.626Z,12.25
2023-04-08T20:00:29.693Z,12.63
2023-04-08T20:02:56.970Z,11.80
2023-04-08T20:05:24.183Z,12.43
2023-04-08T20:07:51.354Z,12.15
2023-04-08T20:10:18.935Z,11.90
2023-04-08T20:12:46.215Z,12.15
2023-04-08T20:15:23.673Z,12.32
2023-04-08T20:17:51.582Z,12.25
2023-04-08T20:20:18.671Z,12.35
2023-04-08T20:22:46.642Z,12.15
2023-04-08T20:25:13.804Z,12.60
2023-04-08T20:27:41.403Z,13.77
2023-04-08T20:30:09.305Z,12.95
2023-04-08T20:32:38.826Z,12.57
2023-04-08T20:35:06.660Z,13.15
2023-04-08T20:37:33.773Z,12.65
2023-04-08T20:40:01.057Z,13.30
2023-04-08T20:42:28.798Z,13.90
2023-04-08T20:44:55.795Z,13.18
2023-04-08T20:47:22.806Z,13.82
2023-04-08T20:49:49.788Z,14.10
2023-04-08T20:52:18.335Z,13.95
2023-04-08T20:54:45.469Z,13.18
2023-04-08T20:57:12.407Z,12.68
2023-04-08T20:59:39.378Z,12.85
2023-04-08T21:02:07.762Z,14.15
2023-04-08T21:04:34.752Z,13.25
2023-04-08T21:07:01.854Z,14.15
2023-04-08T21:09:29.005Z,13.73
2023-04-08T21:11:56.387Z,14.50
2023-04-08T21:14:23.562Z,14.40
2023-04-08T21:16:50.544Z,14.38
2023-04-08T21:19:17.736Z,15.25
2023-04-08T21:21:46.271Z,14.85
2023-04-08T21:24:13.440Z,14.23
2023-04-08T21:26:40.669Z,14.45
2023-04-08T21:29:07.607Z,14.75
2023-04-08T21:31:36.014Z,15.25
2023-04-08T21:34:03.530Z,13.82
2023-04-08T21:36:31.467Z,14.82
2023-04-08T21:38:58.458Z,14.05
2023-04-08T21:41:25.420Z,13.32
2023-04-08T21:43:53.836Z,14.50
2023-04-08T21:46:21.783Z,14.55
2023-04-08T21:48:48.765Z,14.07
2023-04-08T21:51:20.076Z,14.73
2023-04-08T21:53:48.854Z,13.88
2023-04-08T21:56:17.471Z,14.98
2023-04-08T21:58:44.396Z,13.77
2023-04-08T22:01:11.489Z,14.55
2023-04-08T22:03:38.571Z,14.23
2023-04-08T22:06:10.939Z,14.35
2023-04-08T22:08:39.824Z,16.50
2023-04-08T22:11:08.975Z,15.25
2023-04-08T22:13:36.069Z,15.40
2023-04-08T22:16:03.273Z,16.75
2023-04-08T22:18:30.607Z,15.25
2023-04-08T22:20:57.620Z,15.95
2023-04-08T22:23:24.545Z,17.73
2023-04-08T22:25:51.613Z,17.63
2023-04-08T22:28:18.686Z,17.38
2023-04-08T22:30:46.120Z,17.85
2023-04-08T22:33:13.174Z,18.00
2023-04-08T22:35:40.612Z,18.55
2023-04-08T22:38:07.599Z,19.38
2023-04-08T22:40:37.820Z,18.88
2023-04-08T22:43:04.840Z,19.30
2023-04-08T22:45:31.935Z,19.23
2023-04-08T22:47:59.815Z,20.25
2023-04-08T22:50:26.880Z,19.52
2023-04-08T22:52:55.206Z,19.65
2023-04-08T22:55:22.888Z,19.75
2023-04-08T22:57:49.892Z,20.55
2023-04-08T23:00:17.067Z,23.00
2023-04-08T23:02:44.159Z,23.38
2023-04-08T23:05:12.673Z,23.00
2023-04-08T23:07:39.663Z,22.00
2023-04-08T23:10:08.409Z,21.80
2023-04-08T23:12:36.230Z,20.75
2023-04-08T23:15:04.501Z,20.80
2023-04-08T23:17:33.360Z,20.42
2023-04-08T23:20:00.937Z,20.80
2023-04-08T23:22:27.900Z,19.75
2023-04-08T23:24:54.896Z,19.30
2023-04-08T23:27:24.166Z,19.63
2023-04-08T23:29:52.063Z,17.90
2023-04-08T23:32:20.189Z,19.35
2023-04-08T23:34:47.185Z,19.15
2023-04-08T23:37:14.164Z,18.92
2023-04-08T23:39:41.290Z,16.73
2023-04-08T23:42:08.241Z,17.52
2023-04-08T23:44:35.497Z,17.67
2023-04-08T23:47:03.153Z,15.50
2023-04-08T23:49:31.197Z,16.50
2023-04-08T23:51:58.327Z,15.57
2023-04-08T23:54:25.357Z,15.60
2023-04-08T23:56:52.323Z,15.70
2023-04-08T23:59:19.294Z,14.70
